sensor_id;sensor_type;location;lat;lon;timestamp;P1;durP1;ratioP1;P2;durP2;ratioP2
35128;SDS011;21301;43.626;10.580;2022-07-29T00:00:43;6.57;;;2.60;;
35128;SDS011;21301;43.626;10.580;2022-07-29T00:03:12;10.20;;;2.35;;
35128;SDS011;21301;43.626;10.580;2022-07-29T00:05:39;6.43;;;2.42;;
35128;SDS011;21301;43.626;10.580;2022-07-29T00:08:05;6.43;;;2.75;;
35128;SDS011;21301;43.626;10.580;2022-07-29T00:10:32;11.73;;;2.55;;
35128;SDS011;21301;43.626;10.580;2022-07-29T00:12:58;7.28;;;3.08;;
35128;SDS011;21301;43.626;10.580;2022-07-29T00:15:23;6.82;;;3.20;;
35128;SDS011;21301;43.626;10.580;2022-07-29T00:17:49;7.03;;;2.25;;
35128;SDS011;21301;43.626;10.580;2022-07-29T00:20:15;7.18;;;2.50;;
35128;SDS011;21301;43.626;10.580;2022-07-29T00:22:41;5.93;;;2.55;;
35128;SDS011;21301;43.626;10.580;2022-07-29T00:25:07;4.88;;;2.60;;
35128;SDS011;21301;43.626;10.580;2022-07-29T00:27:33;9.68;;;2.97;;
35128;SDS011;21301;43.626;10.580;2022-07-29T00:30:03;13.88;;;7.13;;
35128;SDS011;21301;43.626;10.580;2022-07-29T00:32:30;7.97;;;4.55;;
35128;SDS011;21301;43.626;10.580;2022-07-29T00:34:56;6.72;;;3.08;;
35128;SDS011;21301;43.626;10.580;2022-07-29T00:37:40;7.78;;;2.70;;
35128;SDS011;21301;43.626;10.580;2022-07-29T00:40:06;7.68;;;2.83;;
35128;SDS011;21301;43.626;10.580;2022-07-29T00:42:45;9.57;;;2.58;;
35128;SDS011;21301;43.626;10.580;2022-07-29T00:45:12;8.55;;;2.78;;
35128;SDS011;21301;43.626;10.580;2022-07-29T00:47:38;9.20;;;2.80;;
35128;SDS011;21301;43.626;10.580;2022-07-29T00:50:04;6.22;;;3.33;;
35128;SDS011;21301;43.626;10.580;2022-07-29T00:52:33;4.45;;;2.10;;
35128;SDS011;21301;43.626;10.580;2022-07-29T00:55:00;10.32;;;2.90;;
35128;SDS011;21301;43.626;10.580;2022-07-29T00:57:29;6.57;;;2.55;;
35128;SDS011;21301;43.626;10.580;2022-07-29T00:59:55;4.75;;;2.47;;
35128;SDS011;21301;43.626;10.580;2022-07-29T01:02:21;5.82;;;2.72;;
35128;SDS011;21301;43.626;10.580;2022-07-29T01:04:46;8.70;;;3.10;;
35128;SDS011;21301;43.626;10.580;2022-07-29T01:07:14;8.60;;;2.75;;
35128;SDS011;21301;43.626;10.580;2022-07-29T01:09:40;7.97;;;2.50;;
35128;SDS011;21301;43.626;10.580;2022-07-29T01:12:09;7.18;;;2.53;;
35128;SDS011;21301;43.626;10.580;2022-07-29T01:14:36;10.25;;;4.00;;
35128;SDS011;21301;43.626;10.580;2022-07-29T01:17:10;6.78;;;2.50;;
35128;SDS011;21301;43.626;10.580;2022-07-29T01:19:51;7.85;;;3.72;;
35128;SDS011;21301;43.626;10.580;2022-07-29T01:22:24;5.40;;;3.03;;
35128;SDS011;21301;43.626;10.580;2022-07-29T01:30:12;5.22;;;2.38;;
35128;SDS011;21301;43.626;10.580;2022-07-29T01:32:38;8.10;;;2.88;;
35128;SDS011;21301;43.626;10.580;2022-07-29T01:35:07;6.97;;;2.85;;
35128;SDS011;21301;43.626;10.580;2022-07-29T01:40:19;4.57;;;2.40;;
35128;SDS011;21301;43.626;10.580;2022-07-29T01:42:48;4.78;;;2.42;;
35128;SDS011;21301;43.626;10.580;2022-07-29T01:45:26;6.75;;;2.72;;
35128;SDS011;21301;43.626;10.580;2022-07-29T01:50:49;7.22;;;2.47;;
35128;SDS011;21301;43.626;10.580;2022-07-29T01:53:32;7.30;;;3.13;;
35128;SDS011;21301;43.626;10.580;2022-07-29T01:56:02;5.82;;;2.50;;
35128;SDS011;21301;43.626;10.580;2022-07-29T01:58:29;7.78;;;3.08;;
35128;SDS011;21301;43.626;10.580;2022-07-29T02:00:57;6.18;;;2.80;;
35128;SDS011;21301;43.626;10.580;2022-07-29T02:03:25;6.50;;;2.60;;
35128;SDS011;21301;43.626;10.580;2022-07-29T02:05:52;6.75;;;2.85;;
35128;SDS011;21301;43.626;10.580;2022-07-29T02:08:21;8.02;;;2.88;;
35128;SDS011;21301;43.626;10.580;2022-07-29T02:10:49;7.60;;;2.92;;
35128;SDS011;21301;43.626;10.580;2022-07-29T02:13:16;9.13;;;2.35;;
35128;SDS011;21301;43.626;10.580;2022-07-29T02:15:44;6.53;;;2.78;;
35128;SDS011;21301;43.626;10.580;2022-07-29T02:18:14;10.30;;;3.33;;
35128;SDS011;21301;43.626;10.580;2022-07-29T02:20:42;8.55;;;3.08;;
35128;SDS011;21301;43.626;10.580;2022-07-29T02:23:12;6.72;;;3.13;;
35128;SDS011;21301;43.626;10.580;2022-07-29T02:25:48;9.32;;;3.00;;
35128;SDS011;21301;43.626;10.580;2022-07-29T02:28:16;5.25;;;2.63;;
35128;SDS011;21301;43.626;10.580;2022-07-29T02:30:44;8.68;;;2.83;;
35128;SDS011;21301;43.626;10.580;2022-07-29T02:33:12;7.22;;;3.03;;
35128;SDS011;21301;43.626;10.580;2022-07-29T02:35:39;5.28;;;2.85;;
35128;SDS011;21301;43.626;10.580;2022-07-29T02:38:09;5.97;;;2.55;;
35128;SDS011;21301;43.626;10.580;2022-07-29T02:40:56;5.90;;;2.88;;
35128;SDS011;21301;43.626;10.580;2022-07-29T02:43:23;7.30;;;2.70;;
35128;SDS011;21301;43.626;10.580;2022-07-29T02:45:51;6.85;;;3.05;;
35128;SDS011;21301;43.626;10.580;2022-07-29T02:48:19;9.65;;;3.30;;
35128;SDS011;21301;43.626;10.580;2022-07-29T02:50:52;12.85;;;3.60;;
35128;SDS011;21301;43.626;10.580;2022-07-29T02:53:26;5.63;;;2.97;;
35128;SDS011;21301;43.626;10.580;2022-07-29T02:55:55;8.48;;;2.75;;
35128;SDS011;21301;43.626;10.580;2022-07-29T02:58:27;6.65;;;2.85;;
35128;SDS011;21301;43.626;10.580;2022-07-29T03:01:15;6.07;;;2.50;;
35128;SDS011;21301;43.626;10.580;2022-07-29T03:03:45;3.95;;;2.13;;
35128;SDS011;21301;43.626;10.580;2022-07-29T03:06:13;6.20;;;2.67;;
35128;SDS011;21301;43.626;10.580;2022-07-29T03:08:40;5.95;;;2.53;;
35128;SDS011;21301;43.626;10.580;2022-07-29T03:11:07;8.48;;;3.35;;
35128;SDS011;21301;43.626;10.580;2022-07-29T03:13:34;8.75;;;3.10;;
35128;SDS011;21301;43.626;10.580;2022-07-29T03:16:01;6.07;;;2.53;;
35128;SDS011;21301;43.626;10.580;2022-07-29T03:18:27;5.53;;;2.75;;
35128;SDS011;21301;43.626;10.580;2022-07-29T03:20:53;7.13;;;2.90;;
35128;SDS011;21301;43.626;10.580;2022-07-29T03:23:23;8.38;;;3.05;;
35128;SDS011;21301;43.626;10.580;2022-07-29T03:25:51;5.43;;;2.63;;
35128;SDS011;21301;43.626;10.580;2022-07-29T03:28:18;7.45;;;3.03;;
35128;SDS011;21301;43.626;10.580;2022-07-29T03:30:45;6.40;;;2.58;;
35128;SDS011;21301;43.626;10.580;2022-07-29T03:33:11;6.60;;;3.15;;
35128;SDS011;21301;43.626;10.580;2022-07-29T03:35:37;6.03;;;2.58;;
35128;SDS011;21301;43.626;10.580;2022-07-29T03:38:03;8.45;;;3.60;;
35128;SDS011;21301;43.626;10.580;2022-07-29T03:40:37;6.65;;;3.28;;
35128;SDS011;21301;43.626;10.580;2022-07-29T03:43:07;9.05;;;2.85;;
35128;SDS011;21301;43.626;10.580;2022-07-29T03:45:35;6.93;;;3.33;;
35128;SDS011;21301;43.626;10.580;2022-07-29T03:48:02;6.47;;;3.13;;
35128;SDS011;21301;43.626;10.580;2022-07-29T03:50:35;6.68;;;2.80;;
35128;SDS011;21301;43.626;10.580;2022-07-29T03:53:01;7.60;;;3.70;;
35128;SDS011;21301;43.626;10.580;2022-07-29T03:55:28;7.70;;;3.55;;
35128;SDS011;21301;43.626;10.580;2022-07-29T03:57:57;11.43;;;5.32;;
35128;SDS011;21301;43.626;10.580;2022-07-29T04:00:25;12.75;;;4.53;;
35128;SDS011;21301;43.626;10.580;2022-07-29T04:02:51;9.55;;;4.68;;
35128;SDS011;21301;43.626;10.580;2022-07-29T04:05:17;11.13;;;4.60;;
35128;SDS011;21301;43.626;10.580;2022-07-29T04:07:44;10.52;;;4.38;;
35128;SDS011;21301;43.626;10.580;2022-07-29T04:10:11;8.80;;;4.55;;
35128;SDS011;21301;43.626;10.580;2022-07-29T04:12:37;12.05;;;5.57;;
35128;SDS011;21301;43.626;10.580;2022-07-29T04:15:03;10.88;;;4.93;;
35128;SDS011;21301;43.626;10.580;2022-07-29T04:17:29;9.75;;;5.03;;
35128;SDS011;21301;43.626;10.580;2022-07-29T04:19:55;12.40;;;4.47;;
35128;SDS011;21301;43.626;10.580;2022-07-29T04:22:21;12.50;;;4.60;;
35128;SDS011;21301;43.626;10.580;2022-07-29T04:24:47;9.20;;;4.40;;
35128;SDS011;21301;43.626;10.580;2022-07-29T04:27:12;9.73;;;4.47;;
35128;SDS011;21301;43.626;10.580;2022-07-29T04:29:38;11.07;;;4.68;;
35128;SDS011;21301;43.626;10.580;2022-07-29T04:32:04;9.07;;;4.75;;
35128;SDS011;21301;43.626;10.580;2022-07-29T04:34:30;9.88;;;4.78;;
35128;SDS011;21301;43.626;10.580;2022-07-29T04:36:56;11.05;;;4.70;;
35128;SDS011;21301;43.626;10.580;2022-07-29T04:39:22;12.65;;;5.35;;
35128;SDS011;21301;43.626;10.580;2022-07-29T04:41:48;9.63;;;5.50;;
35128;SDS011;21301;43.626;10.580;2022-07-29T04:44:15;7.40;;;4.78;;
35128;SDS011;21301;43.626;10.580;2022-07-29T04:46:40;12.88;;;4.55;;
35128;SDS011;21301;43.626;10.580;2022-07-29T04:49:06;12.48;;;5.15;;
35128;SDS011;21301;43.626;10.580;2022-07-29T04:51:33;9.50;;;5.00;;
35128;SDS011;21301;43.626;10.580;2022-07-29T04:53:59;7.30;;;4.85;;
35128;SDS011;21301;43.626;10.580;2022-07-29T04:56:25;10.75;;;4.05;;
35128;SDS011;21301;43.626;10.580;2022-07-29T04:58:51;9.85;;;4.38;;
35128;SDS011;21301;43.626;10.580;2022-07-29T05:01:17;7.88;;;5.07;;
35128;SDS011;21301;43.626;10.580;2022-07-29T05:03:43;11.95;;;5.28;;
35128;SDS011;21301;43.626;10.580;2022-07-29T05:06:10;9.20;;;5.43;;
35128;SDS011;21301;43.626;10.580;2022-07-29T05:08:36;8.63;;;5.13;;
35128;SDS011;21301;43.626;10.580;2022-07-29T05:11:03;7.50;;;4.85;;
35128;SDS011;21301;43.626;10.580;2022-07-29T05:13:29;8.63;;;4.82;;
35128;SDS011;21301;43.626;10.580;2022-07-29T05:15:55;7.00;;;4.47;;
35128;SDS011;21301;43.626;10.580;2022-07-29T05:18:23;8.35;;;4.75;;
35128;SDS011;21301;43.626;10.580;2022-07-29T05:20:49;12.45;;;5.15;;
35128;SDS011;21301;43.626;10.580;2022-07-29T05:23:16;9.45;;;5.88;;
35128;SDS011;21301;43.626;10.580;2022-07-29T05:25:42;9.25;;;5.35;;
35128;SDS011;21301;43.626;10.580;2022-07-29T05:28:07;8.02;;;4.70;;
35128;SDS011;21301;43.626;10.580;2022-07-29T05:30:33;12.35;;;5.47;;
35128;SDS011;21301;43.626;10.580;2022-07-29T05:32:59;11.07;;;5.88;;
35128;SDS011;21301;43.626;10.580;2022-07-29T05:35:25;9.35;;;5.05;;
35128;SDS011;21301;43.626;10.580;2022-07-29T05:37:51;11.85;;;6.55;;
35128;SDS011;21301;43.626;10.580;2022-07-29T05:40:16;9.63;;;5.18;;
35128;SDS011;21301;43.626;10.580;2022-07-29T05:42:42;8.50;;;5.10;;
35128;SDS011;21301;43.626;10.580;2022-07-29T05:45:08;8.57;;;5.22;;
35128;SDS011;21301;43.626;10.580;2022-07-29T05:47:34;9.82;;;5.43;;
35128;SDS011;21301;43.626;10.580;2022-07-29T05:50:00;11.05;;;5.32;;
35128;SDS011;21301;43.626;10.580;2022-07-29T05:52:26;12.80;;;5.55;;
35128;SDS011;21301;43.626;10.580;2022-07-29T05:54:52;12.75;;;5.38;;
35128;SDS011;21301;43.626;10.580;2022-07-29T05:57:19;12.60;;;5.18;;
35128;SDS011;21301;43.626;10.580;2022-07-29T05:59:46;11.25;;;6.47;;
35128;SDS011;21301;43.626;10.580;2022-07-29T06:02:13;8.07;;;5.18;;
35128;SDS011;21301;43.626;10.580;2022-07-29T06:04:38;9.90;;;4.72;;
35128;SDS011;21301;43.626;10.580;2022-07-29T06:07:04;8.55;;;5.55;;
35128;SDS011;21301;43.626;10.580;2022-07-29T06:09:31;15.55;;;6.05;;
35128;SDS011;21301;43.626;10.580;2022-07-29T06:11:57;13.02;;;6.18;;
35128;SDS011;21301;43.626;10.580;2022-07-29T06:14:25;12.05;;;6.03;;
35128;SDS011;21301;43.626;10.580;2022-07-29T06:16:53;17.95;;;5.93;;
35128;SDS011;21301;43.626;10.580;2022-07-29T06:19:20;11.10;;;5.47;;
35128;SDS011;21301;43.626;10.580;2022-07-29T06:21:46;10.63;;;5.13;;
35128;SDS011;21301;43.626;10.580;2022-07-29T06:24:13;9.48;;;4.97;;
35128;SDS011;21301;43.626;10.580;2022-07-29T06:26:40;9.52;;;5.47;;
35128;SDS011;21301;43.626;10.580;2022-07-29T06:29:09;9.55;;;5.13;;
35128;SDS011;21301;43.626;10.580;2022-07-29T06:31:36;9.82;;;5.15;;
35128;SDS011;21301;43.626;10.580;2022-07-29T06:34:02;15.70;;;6.30;;
35128;SDS011;21301;43.626;10.580;2022-07-29T06:36:29;12.80;;;5.85;;
35128;SDS011;21301;43.626;10.580;2022-07-29T06:38:54;14.82;;;5.63;;
35128;SDS011;21301;43.626;10.580;2022-07-29T06:41:20;11.57;;;4.30;;
35128;SDS011;21301;43.626;10.580;2022-07-29T06:43:47;11.63;;;5.30;;
35128;SDS011;21301;43.626;10.580;2022-07-29T06:46:17;9.57;;;4.95;;
35128;SDS011;21301;43.626;10.580;2022-07-29T06:48:43;10.50;;;4.95;;
35128;SDS011;21301;43.626;10.580;2022-07-29T06:51:10;9.73;;;4.78;;
35128;SDS011;21301;43.626;10.580;2022-07-29T06:53:39;8.68;;;4.20;;
35128;SDS011;21301;43.626;10.580;2022-07-29T06:56:06;10.95;;;5.00;;
35128;SDS011;21301;43.626;10.580;2022-07-29T06:58:34;10.52;;;4.55;;
35128;SDS011;21301;43.626;10.580;2022-07-29T07:01:01;7.38;;;4.47;;
35128;SDS011;21301;43.626;10.580;2022-07-29T07:03:29;11.93;;;3.70;;
35128;SDS011;21301;43.626;10.580;2022-07-29T07:05:55;7.30;;;3.80;;
35128;SDS011;21301;43.626;10.580;2022-07-29T07:08:21;9.63;;;4.03;;
35128;SDS011;21301;43.626;10.580;2022-07-29T07:10:48;13.40;;;3.88;;
35128;SDS011;21301;43.626;10.580;2022-07-29T07:13:18;9.60;;;3.33;;
35128;SDS011;21301;43.626;10.580;2022-07-29T07:15:44;9.50;;;3.92;;
35128;SDS011;21301;43.626;10.580;2022-07-29T07:18:13;9.85;;;3.95;;
35128;SDS011;21301;43.626;10.580;2022-07-29T07:20:39;10.07;;;4.07;;
35128;SDS011;21301;43.626;10.580;2022-07-29T07:23:05;6.32;;;3.08;;
35128;SDS011;21301;43.626;10.580;2022-07-29T07:25:32;6.82;;;2.85;;
35128;SDS011;21301;43.626;10.580;2022-07-29T07:27:58;8.75;;;3.17;;
35128;SDS011;21301;43.626;10.580;2022-07-29T07:30:24;8.32;;;3.25;;
35128;SDS011;21301;43.626;10.580;2022-07-29T07:32:50;6.63;;;2.35;;
35128;SDS011;21301;43.626;10.580;2022-07-29T07:35:16;6.43;;;2.92;;
35128;SDS011;21301;43.626;10.580;2022-07-29T07:37:42;7.38;;;2.70;;
35128;SDS011;21301;43.626;10.580;2022-07-29T07:40:08;7.85;;;2.80;;
35128;SDS011;21301;43.626;10.580;2022-07-29T07:42:36;7.40;;;2.90;;
35128;SDS011;21301;43.626;10.580;2022-07-29T07:45:03;10.23;;;3.08;;
35128;SDS011;21301;43.626;10.580;2022-07-29T07:47:30;11.18;;;3.88;;
35128;SDS011;21301;43.626;10.580;2022-07-29T07:49:55;5.75;;;2.30;;
35128;SDS011;21301;43.626;10.580;2022-07-29T07:52:21;6.50;;;2.17;;
35128;SDS011;21301;43.626;10.580;2022-07-29T07:54:47;6.07;;;2.53;;
35128;SDS011;21301;43.626;10.580;2022-07-29T07:57:15;7.68;;;2.85;;
35128;SDS011;21301;43.626;10.580;2022-07-29T07:59:41;4.10;;;2.00;;
35128;SDS011;21301;43.626;10.580;2022-07-29T08:02:07;5.75;;;2.30;;
35128;SDS011;21301;43.626;10.580;2022-07-29T08:04:34;6.38;;;2.00;;
35128;SDS011;21301;43.626;10.580;2022-07-29T08:07:01;7.40;;;2.08;;
35128;SDS011;21301;43.626;10.580;2022-07-29T08:09:27;6.22;;;2.40;;
35128;SDS011;21301;43.626;10.580;2022-07-29T08:11:54;5.70;;;2.08;;
35128;SDS011;21301;43.626;10.580;2022-07-29T08:14:20;9.82;;;2.83;;
35128;SDS011;21301;43.626;10.580;2022-07-29T08:16:46;6.00;;;2.28;;
35128;SDS011;21301;43.626;10.580;2022-07-29T08:19:12;5.47;;;2.20;;
35128;SDS011;21301;43.626;10.580;2022-07-29T08:21:38;9.40;;;2.58;;
35128;SDS011;21301;43.626;10.580;2022-07-29T08:24:04;6.93;;;2.30;;
35128;SDS011;21301;43.626;10.580;2022-07-29T08:26:49;5.75;;;2.08;;
35128;SDS011;21301;43.626;10.580;2022-07-29T08:29:15;10.40;;;2.42;;
35128;SDS011;21301;43.626;10.580;2022-07-29T08:31:41;6.82;;;3.03;;
35128;SDS011;21301;43.626;10.580;2022-07-29T08:34:07;5.65;;;2.50;;
35128;SDS011;21301;43.626;10.580;2022-07-29T08:36:33;7.50;;;2.20;;
35128;SDS011;21301;43.626;10.580;2022-07-29T08:39:00;7.63;;;2.67;;
35128;SDS011;21301;43.626;10.580;2022-07-29T08:41:27;6.10;;;2.20;;
35128;SDS011;21301;43.626;10.580;2022-07-29T08:43:53;6.70;;;2.10;;
35128;SDS011;21301;43.626;10.580;2022-07-29T08:46:19;5.72;;;2.42;;
35128;SDS011;21301;43.626;10.580;2022-07-29T08:48:46;7.68;;;2.38;;
35128;SDS011;21301;43.626;10.580;2022-07-29T08:54:18;7.20;;;2.53;;
35128;SDS011;21301;43.626;10.580;2022-07-29T08:56:50;9.82;;;2.30;;
35128;SDS011;21301;43.626;10.580;2022-07-29T08:59:18;7.70;;;2.10;;
35128;SDS011;21301;43.626;10.580;2022-07-29T09:01:46;6.60;;;2.78;;
35128;SDS011;21301;43.626;10.580;2022-07-29T09:04:13;7.22;;;2.63;;
35128;SDS011;21301;43.626;10.580;2022-07-29T09:06:44;5.82;;;1.95;;
35128;SDS011;21301;43.626;10.580;2022-07-29T09:09:12;4.88;;;2.35;;
35128;SDS011;21301;43.626;10.580;2022-07-29T09:11:39;6.75;;;2.50;;
35128;SDS011;21301;43.626;10.580;2022-07-29T09:14:05;5.18;;;2.45;;
35128;SDS011;21301;43.626;10.580;2022-07-29T09:19:38;7.30;;;2.17;;
35128;SDS011;21301;43.626;10.580;2022-07-29T09:22:04;4.53;;;2.45;;
35128;SDS011;21301;43.626;10.580;2022-07-29T09:26:57;6.10;;;1.95;;
35128;SDS011;21301;43.626;10.580;2022-07-29T09:29:23;8.75;;;2.28;;
35128;SDS011;21301;43.626;10.580;2022-07-29T09:31:51;3.75;;;1.70;;
35128;SDS011;21301;43.626;10.580;2022-07-29T09:34:21;4.88;;;2.10;;
35128;SDS011;21301;43.626;10.580;2022-07-29T09:36:49;6.85;;;2.33;;
35128;SDS011;21301;43.626;10.580;2022-07-29T09:39:26;8.00;;;3.75;;
35128;SDS011;21301;43.626;10.580;2022-07-29T09:41:53;7.03;;;2.60;;
35128;SDS011;21301;43.626;10.580;2022-07-29T09:44:20;8.57;;;2.88;;
35128;SDS011;21301;43.626;10.580;2022-07-29T09:47:00;8.07;;;2.47;;
35128;SDS011;21301;43.626;10.580;2022-07-29T09:49:32;4.70;;;2.28;;
35128;SDS011;21301;43.626;10.580;2022-07-29T09:52:04;11.50;;;2.55;;
35128;SDS011;21301;43.626;10.580;2022-07-29T09:54:32;12.02;;;5.50;;
35128;SDS011;21301;43.626;10.580;2022-07-29T09:57:05;6.50;;;2.35;;
35128;SDS011;21301;43.626;10.580;2022-07-29T09:59:34;6.60;;;2.45;;
35128;SDS011;21301;43.626;10.580;2022-07-29T10:02:01;5.45;;;1.95;;
35128;SDS011;21301;43.626;10.580;2022-07-29T10:04:39;13.07;;;2.38;;
35128;SDS011;21301;43.626;10.580;2022-07-29T10:07:06;5.38;;;1.95;;
35128;SDS011;21301;43.626;10.580;2022-07-29T10:09:33;6.35;;;2.13;;
35128;SDS011;21301;43.626;10.580;2022-07-29T10:14:29;7.65;;;2.65;;
35128;SDS011;21301;43.626;10.580;2022-07-29T10:16:58;6.35;;;2.42;;
35128;SDS011;21301;43.626;10.580;2022-07-29T10:19:29;4.80;;;2.03;;
35128;SDS011;21301;43.626;10.580;2022-07-29T10:21:56;5.88;;;2.38;;
35128;SDS011;21301;43.626;10.580;2022-07-29T10:24:24;7.88;;;2.45;;
35128;SDS011;21301;43.626;10.580;2022-07-29T10:26:51;9.95;;;2.35;;
35128;SDS011;21301;43.626;10.580;2022-07-29T10:29:22;7.00;;;1.95;;
35128;SDS011;21301;43.626;10.580;2022-07-29T10:31:52;7.10;;;2.13;;
35128;SDS011;21301;43.626;10.580;2022-07-29T10:40:11;6.00;;;2.15;;
35128;SDS011;21301;43.626;10.580;2022-07-29T10:43:04;6.65;;;1.98;;
35128;SDS011;21301;43.626;10.580;2022-07-29T10:45:43;6.78;;;1.80;;
35128;SDS011;21301;43.626;10.580;2022-07-29T10:48:12;6.05;;;1.95;;
35128;SDS011;21301;43.626;10.580;2022-07-29T10:56:26;6.82;;;2.60;;
35128;SDS011;21301;43.626;10.580;2022-07-29T11:10:44;5.88;;;2.63;;
35128;SDS011;21301;43.626;10.580;2022-07-29T11:13:10;6.30;;;2.25;;
35128;SDS011;21301;43.626;10.580;2022-07-29T11:15:52;7.25;;;2.40;;
35128;SDS011;21301;43.626;10.580;2022-07-29T11:18:19;5.82;;;1.85;;
35128;SDS011;21301;43.626;10.580;2022-07-29T11:20:46;5.80;;;2.40;;
35128;SDS011;21301;43.626;10.580;2022-07-29T11:31:41;5.50;;;2.47;;
35128;SDS011;21301;43.626;10.580;2022-07-29T11:34:24;4.65;;;1.83;;
35128;SDS011;21301;43.626;10.580;2022-07-29T11:39:38;4.85;;;2.15;;
35128;SDS011;21301;43.626;10.580;2022-07-29T11:44:55;6.50;;;2.10;;
35128;SDS011;21301;43.626;10.580;2022-07-29T11:47:27;5.25;;;2.25;;
35128;SDS011;21301;43.626;10.580;2022-07-29T11:49:54;4.90;;;2.20;;
35128;SDS011;21301;43.626;10.580;2022-07-29T11:52:22;9.18;;;2.72;;
35128;SDS011;21301;43.626;10.580;2022-07-29T11:54:49;7.53;;;2.33;;
35128;SDS011;21301;43.626;10.580;2022-07-29T11:57:17;7.57;;;2.38;;
35128;SDS011;21301;43.626;10.580;2022-07-29T11:59:44;14.40;;;3.30;;
35128;SDS011;21301;43.626;10.580;2022-07-29T12:05:20;7.30;;;2.40;;
35128;SDS011;21301;43.626;10.580;2022-07-29T12:07:55;6.40;;;2.60;;
35128;SDS011;21301;43.626;10.580;2022-07-29T12:10:32;5.93;;;2.17;;
35128;SDS011;21301;43.626;10.580;2022-07-29T12:12:58;11.07;;;3.00;;
35128;SDS011;21301;43.626;10.580;2022-07-29T12:15:24;7.90;;;2.40;;
35128;SDS011;21301;43.626;10.580;2022-07-29T12:17:51;6.95;;;2.30;;
35128;SDS011;21301;43.626;10.580;2022-07-29T12:20:27;6.57;;;2.10;;
35128;SDS011;21301;43.626;10.580;2022-07-29T12:22:54;11.73;;;2.40;;
35128;SDS011;21301;43.626;10.580;2022-07-29T12:25:24;4.68;;;2.05;;
35128;SDS011;21301;43.626;10.580;2022-07-29T12:28:02;7.13;;;2.00;;
35128;SDS011;21301;43.626;10.580;2022-07-29T12:30:50;5.45;;;2.08;;
35128;SDS011;21301;43.626;10.580;2022-07-29T12:36:08;8.07;;;2.40;;
35128;SDS011;21301;43.626;10.580;2022-07-29T12:38:35;7.40;;;2.42;;
35128;SDS011;21301;43.626;10.580;2022-07-29T12:41:19;5.53;;;2.13;;
35128;SDS011;21301;43.626;10.580;2022-07-29T12:43:55;7.43;;;2.67;;
35128;SDS011;21301;43.626;10.580;2022-07-29T12:46:20;8.13;;;2.25;;
35128;SDS011;21301;43.626;10.580;2022-07-29T12:48:49;6.35;;;2.58;;
35128;SDS011;21301;43.626;10.580;2022-07-29T12:51:33;4.68;;;2.03;;
35128;SDS011;21301;43.626;10.580;2022-07-29T12:54:05;6.20;;;1.90;;
35128;SDS011;21301;43.626;10.580;2022-07-29T12:56:33;6.30;;;2.10;;
35128;SDS011;21301;43.626;10.580;2022-07-29T12:58:59;7.60;;;2.50;;
35128;SDS011;21301;43.626;10.580;2022-07-29T13:01:25;4.15;;;1.80;;
35128;SDS011;21301;43.626;10.580;2022-07-29T13:03:56;3.95;;;1.63;;
35128;SDS011;21301;43.626;10.580;2022-07-29T13:06:29;5.97;;;2.38;;
35128;SDS011;21301;43.626;10.580;2022-07-29T13:09:02;6.20;;;2.17;;
35128;SDS011;21301;43.626;10.580;2022-07-29T13:12:19;5.63;;;1.85;;
35128;SDS011;21301;43.626;10.580;2022-07-29T13:14:48;4.97;;;2.10;;
35128;SDS011;21301;43.626;10.580;2022-07-29T13:17:17;15.32;;;1.85;;
35128;SDS011;21301;43.626;10.580;2022-07-29T13:19:52;4.97;;;1.70;;
35128;SDS011;21301;43.626;10.580;2022-07-29T13:22:20;6.28;;;2.05;;
35128;SDS011;21301;43.626;10.580;2022-07-29T13:24:58;4.85;;;2.15;;
35128;SDS011;21301;43.626;10.580;2022-07-29T13:27:29;4.07;;;1.73;;
35128;SDS011;21301;43.626;10.580;2022-07-29T13:29:57;5.72;;;2.05;;
35128;SDS011;21301;43.626;10.580;2022-07-29T13:32:25;6.43;;;1.92;;
35128;SDS011;21301;43.626;10.580;2022-07-29T13:34:52;7.07;;;2.03;;
35128;SDS011;21301;43.626;10.580;2022-07-29T13:37:19;6.32;;;1.80;;
35128;SDS011;21301;43.626;10.580;2022-07-29T13:39:45;6.60;;;1.67;;
35128;SDS011;21301;43.626;10.580;2022-07-29T13:42:12;4.40;;;1.65;;
35128;SDS011;21301;43.626;10.580;2022-07-29T13:44:39;3.55;;;1.73;;
35128;SDS011;21301;43.626;10.580;2022-07-29T13:47:05;4.38;;;2.15;;
35128;SDS011;21301;43.626;10.580;2022-07-29T13:49:32;4.97;;;1.50;;
35128;SDS011;21301;43.626;10.580;2022-07-29T13:51:58;4.95;;;1.70;;
35128;SDS011;21301;43.626;10.580;2022-07-29T13:54:24;5.30;;;2.03;;
35128;SDS011;21301;43.626;10.580;2022-07-29T13:59:41;5.22;;;1.73;;
35128;SDS011;21301;43.626;10.580;2022-07-29T14:02:07;6.53;;;1.60;;
35128;SDS011;21301;43.626;10.580;2022-07-29T14:04:35;3.92;;;1.40;;
35128;SDS011;21301;43.626;10.580;2022-07-29T14:07:01;8.82;;;1.80;;
35128;SDS011;21301;43.626;10.580;2022-07-29T14:09:28;6.35;;;2.08;;
35128;SDS011;21301;43.626;10.580;2022-07-29T14:11:53;5.00;;;1.98;;
35128;SDS011;21301;43.626;10.580;2022-07-29T14:14:19;7.50;;;2.63;;
35128;SDS011;21301;43.626;10.580;2022-07-29T14:16:46;5.90;;;2.33;;
35128;SDS011;21301;43.626;10.580;2022-07-29T14:19:11;5.32;;;2.00;;
35128;SDS011;21301;43.626;10.580;2022-07-29T14:21:38;7.03;;;2.30;;
35128;SDS011;21301;43.626;10.580;2022-07-29T14:27:14;6.22;;;1.65;;
35128;SDS011;21301;43.626;10.580;2022-07-29T14:29:39;3.90;;;1.80;;
35128;SDS011;21301;43.626;10.580;2022-07-29T14:32:05;5.35;;;1.88;;
35128;SDS011;21301;43.626;10.580;2022-07-29T14:34:32;4.55;;;1.70;;
35128;SDS011;21301;43.626;10.580;2022-07-29T14:36:58;4.13;;;1.52;;
35128;SDS011;21301;43.626;10.580;2022-07-29T14:39:24;4.35;;;1.70;;
35128;SDS011;21301;43.626;10.580;2022-07-29T14:41:49;3.92;;;1.75;;
35128;SDS011;21301;43.626;10.580;2022-07-29T14:44:16;9.73;;;2.17;;
35128;SDS011;21301;43.626;10.580;2022-07-29T14:46:43;6.78;;;2.05;;
35128;SDS011;21301;43.626;10.580;2022-07-29T14:49:09;5.70;;;2.20;;
35128;SDS011;21301;43.626;10.580;2022-07-29T14:51:34;4.60;;;2.10;;
35128;SDS011;21301;43.626;10.580;2022-07-29T14:54:00;5.65;;;2.00;;
35128;SDS011;21301;43.626;10.580;2022-07-29T14:56:26;5.03;;;2.10;;
35128;SDS011;21301;43.626;10.580;2022-07-29T14:58:54;4.40;;;1.85;;
35128;SDS011;21301;43.626;10.580;2022-07-29T15:01:21;5.47;;;2.47;;
35128;SDS011;21301;43.626;10.580;2022-07-29T15:03:47;6.70;;;2.45;;
35128;SDS011;21301;43.626;10.580;2022-07-29T15:06:15;6.32;;;1.98;;
35128;SDS011;21301;43.626;10.580;2022-07-29T15:08:41;9.52;;;2.40;;
35128;SDS011;21301;43.626;10.580;2022-07-29T15:11:07;6.22;;;1.90;;
35128;SDS011;21301;43.626;10.580;2022-07-29T15:13:33;4.45;;;1.85;;
35128;SDS011;21301;43.626;10.580;2022-07-29T15:15:59;6.93;;;2.25;;
35128;SDS011;21301;43.626;10.580;2022-07-29T15:18:25;4.63;;;2.13;;
35128;SDS011;21301;43.626;10.580;2022-07-29T15:20:51;5.72;;;2.03;;
35128;SDS011;21301;43.626;10.580;2022-07-29T15:23:17;10.25;;;2.58;;
35128;SDS011;21301;43.626;10.580;2022-07-29T15:25:43;5.22;;;2.10;;
35128;SDS011;21301;43.626;10.580;2022-07-29T15:28:08;6.40;;;2.28;;
35128;SDS011;21301;43.626;10.580;2022-07-29T15:30:34;4.28;;;1.98;;
35128;SDS011;21301;43.626;10.580;2022-07-29T15:33:05;8.10;;;3.00;;
35128;SDS011;21301;43.626;10.580;2022-07-29T15:35:33;3.58;;;1.67;;
35128;SDS011;21301;43.626;10.580;2022-07-29T15:37:59;4.55;;;1.80;;
35128;SDS011;21301;43.626;10.580;2022-07-29T15:40:25;6.28;;;2.45;;
35128;SDS011;21301;43.626;10.580;2022-07-29T15:43:09;4.85;;;1.85;;
35128;SDS011;21301;43.626;10.580;2022-07-29T15:45:39;8.88;;;2.13;;
35128;SDS011;21301;43.626;10.580;2022-07-29T15:48:06;6.18;;;2.17;;
35128;SDS011;21301;43.626;10.580;2022-07-29T15:50:33;3.88;;;1.55;;